»·PEaware :: N82SB KSLC-KEGE

N82SB :: KSLC-KEGE

FLIGHT INFORMATION

Flight Status: Arrived
Operator: Privately registered:
United States
More flights under this callsign
Pilot: Robert L. (6895)
Aircraft: SOCATA TBM-900
(TBM9)
More flights by this aircraft type
Origin: KSLC Salt Lake City Intl
United States
Destination: KEGE Eagle Co Regl
United States
More flights between these airports :: More routes between these airports
Route: +SLC4 EKR RLG
File this flight plan on PilotEdge
Remarks: Sample flight plan
Altitude:
(Current/Filed)
270ft
Speed:
(Current/Filed)
320kts
Departed: 11-Jan-19 06:07 PM
Arrived: 11-Jan-19 07:12 PM
Distance/Time
Traveled:
242nm/1:05
Distance/Time
To Go:
Arrived

Flight Plot

Page will automatically refresh every two minutes.

Flight plan parsing failed; only flown route is shown


Map Options




Map Legend


Flown Route
Filed Route
Departure Airport
Arrival Airport
Navaid (VOR, NDB)
Fix

Horizontal Profiles

Position Reports

Time Latitude Longitude Heading Altitude Ground
Speed
11-Jan-19 17:23 40.779764 -111.958629 87 4230ft 0kts
11-Jan-19 17:24 40.779764 -111.958629 87 4230ft 0kts
11-Jan-19 17:25 40.779764 -111.958629 87 4230ft 0kts
11-Jan-19 17:26 40.779764 -111.958629 87 4230ft 0kts
11-Jan-19 17:27 40.779764 -111.958629 87 4230ft 0kts
11-Jan-19 17:28 40.779764 -111.958629 87 4230ft 0kts
11-Jan-19 17:29 40.779764 -111.958629 87 4230ft 0kts
11-Jan-19 17:30 40.779764 -111.958629 87 4230ft 0kts
11-Jan-19 17:31 40.779764 -111.958629 87 4230ft 0kts
11-Jan-19 17:32 40.779764 -111.958629 87 4230ft 0kts
11-Jan-19 17:33 40.779764 -111.958629 87 4230ft 0kts
11-Jan-19 17:34 40.779764 -111.958629 87 4230ft 0kts
11-Jan-19 17:35 40.779764 -111.958629 87 4230ft 0kts
11-Jan-19 17:36 40.779764 -111.958629 87 4230ft 0kts
11-Jan-19 17:37 40.779764 -111.958629 87 4230ft 0kts
11-Jan-19 17:38 40.779764 -111.958629 87 4230ft 0kts
11-Jan-19 17:39 40.779764 -111.958629 87 4230ft 0kts
11-Jan-19 17:40 40.779764 -111.958629 87 4230ft 0kts
11-Jan-19 17:41 40.779764 -111.958629 87 4230ft 0kts
11-Jan-19 17:42 40.779764 -111.958629 87 4230ft 0kts
11-Jan-19 17:43 40.779135 -111.958817 206 4230ft 6kts
11-Jan-19 17:44 40.776971 -111.959392 195 4230ft 9kts
11-Jan-19 17:45 40.776290 -111.959556 181 4230ft 0kts
11-Jan-19 17:46 40.776290 -111.959556 181 4230ft 0kts
11-Jan-19 17:47 40.776290 -111.959556 181 4230ft 0kts
11-Jan-19 17:48 40.776290 -111.959556 181 4230ft 0kts
11-Jan-19 17:49 40.776290 -111.959556 181 4230ft 0kts
11-Jan-19 17:50 40.776290 -111.959556 181 4230ft 0kts
11-Jan-19 17:51 40.776290 -111.959556 181 4230ft 0kts
11-Jan-19 17:52 40.776290 -111.959556 181 4230ft 0kts
11-Jan-19 17:53 40.776290 -111.959556 181 4230ft 0kts
11-Jan-19 17:54 40.776290 -111.959556 181 4230ft 0kts
11-Jan-19 17:55 40.776290 -111.959556 181 4230ft 0kts
11-Jan-19 17:56 40.776079 -111.959710 249 4230ft 1kts
11-Jan-19 17:57 40.774846 -111.960461 235 4230ft 2kts
11-Jan-19 17:58 40.773753 -111.960615 179 4230ft 0kts
11-Jan-19 17:59 40.773402 -111.960615 179 4230ft 4kts
11-Jan-19 18:00 40.772992 -111.960647 201 4230ft 0kts
11-Jan-19 18:01 40.772990 -111.960648 201 4230ft 0kts
11-Jan-19 18:02 40.772987 -111.960650 201 4230ft 0kts
11-Jan-19 18:03 40.772781 -111.960877 239 4230ft 0kts
11-Jan-19 18:04 40.772781 -111.960877 239 4230ft 0kts
11-Jan-19 18:05 40.772781 -111.960877 239 4230ft 0kts
11-Jan-19 18:06 40.775236 -111.962142 359 4230ft 68kts
11-Jan-19 18:07 40.812106 -111.962994 356 5305ft 157kts
11-Jan-19 18:08 40.855853 -111.966446 356 7221ft 158kts
11-Jan-19 18:09 40.901467 -111.971462 356 9238ft 165kts
11-Jan-19 18:10 40.948149 -111.977000 356 11218ft 168kts
11-Jan-19 18:11 40.995663 -111.982293 356 12994ft 172kts
11-Jan-19 18:12 41.043338 -111.987906 356 15205ft 171kts
11-Jan-19 18:13 41.091401 -111.994031 356 17305ft 177kts
11-Jan-19 18:14 41.126593 -111.970763 96 19323ft 197kts
11-Jan-19 18:15 41.109798 -111.897910 100 21345ft 208kts
11-Jan-19 18:16 41.091662 -111.822622 99 23130ft 217kts
11-Jan-19 18:17 41.069976 -111.733000 101 23233ft 280kts
11-Jan-19 18:18 41.043995 -111.626447 101 23216ft 301kts
11-Jan-19 18:19 41.016717 -111.515043 101 23214ft 308kts
11-Jan-19 18:20 40.989469 -111.404241 101 23215ft 310kts
11-Jan-19 18:21 40.963758 -111.300292 101 24426ft 283kts
11-Jan-19 18:22 40.939395 -111.202095 100 25729ft 271kts
11-Jan-19 18:23 40.915883 -111.107660 99 27038ft 264kts
11-Jan-19 18:24 40.892387 -111.013391 101 27225ft 302kts
11-Jan-19 18:25 40.863605 -110.898934 102 27209ft 326kts
11-Jan-19 18:26 40.834308 -110.783025 102 27252ft 332kts
11-Jan-19 18:27 40.804598 -110.665877 102 27317ft 333kts
11-Jan-19 18:28 40.774553 -110.548037 102 27337ft 334kts
11-Jan-19 18:29 40.744287 -110.429826 103 27305ft 336kts
11-Jan-19 18:30 40.714011 -110.312259 103 27255ft 337kts
11-Jan-19 18:31 40.683280 -110.193391 103 27216ft 336kts
11-Jan-19 18:32 40.652679 -110.075662 103 27207ft 335kts
11-Jan-19 18:33 40.621603 -109.956688 103 27208ft 334kts
11-Jan-19 18:34 40.590539 -109.838325 103 27208ft 334kts
11-Jan-19 18:35 40.559550 -109.720810 103 27209ft 334kts
11-Jan-19 18:36 40.528524 -109.603715 103 27209ft 334kts
11-Jan-19 18:37 40.497461 -109.487027 103 27210ft 334kts
11-Jan-19 18:38 40.466356 -109.370732 103 27210ft 335kts
11-Jan-19 18:39 40.435306 -109.255181 104 27209ft 335kts
11-Jan-19 18:40 40.403892 -109.138673 105 27209ft 335kts
11-Jan-19 18:41 40.372425 -109.022645 106 27210ft 335kts
11-Jan-19 18:42 40.340671 -108.906217 107 27209ft 334kts
11-Jan-19 18:43 40.309023 -108.790630 107 27210ft 333kts
11-Jan-19 18:44 40.277125 -108.674652 107 26791ft 341kts
11-Jan-19 18:45 40.244469 -108.556434 107 26009ft 343kts
11-Jan-19 18:46 40.215236 -108.437497 99 25236ft 340kts
11-Jan-19 18:47 40.195488 -108.319557 99 25123ft 325kts
11-Jan-19 18:48 40.175820 -108.201886 99 24122ft 329kts
11-Jan-19 18:49 40.156151 -108.083453 99 23130ft 330kts
11-Jan-19 18:50 40.136642 -107.965271 99 22138ft 329kts
11-Jan-19 18:51 40.117261 -107.847898 99 21147ft 328kts
11-Jan-19 18:52 40.097827 -107.730455 99 20014ft 326kts
11-Jan-19 18:53 40.078965 -107.616532 99 18820ft 316kts
11-Jan-19 18:54 40.060391 -107.503506 99 17616ft 313kts
11-Jan-19 18:55 40.042134 -107.392345 99 16419ft 307kts
11-Jan-19 18:57 40.025175 -107.286833 99 15994ft 283kts
11-Jan-19 18:58 40.009122 -107.186197 99 16007ft 274kts
11-Jan-19 18:59 39.993075 -107.085791 99 16021ft 272kts
11-Jan-19 19:00 39.972838 -106.990057 116 15105ft 260kts
11-Jan-19 19:01 39.938904 -106.910048 116 15037ft 240kts
11-Jan-19 19:02 39.904400 -106.828497 116 14286ft 250kts
11-Jan-19 19:03 39.871689 -106.751384 116 14032ft 236kts
11-Jan-19 19:04 39.839150 -106.674866 116 14037ft 237kts
11-Jan-19 19:05 39.797777 -106.606160 171 13794ft 254kts
11-Jan-19 19:06 39.732091 -106.629231 197 12409ft 232kts
11-Jan-19 19:07 39.685696 -106.677478 251 11997ft 224kts
11-Jan-19 19:08 39.664675 -106.755689 263 10951ft 214kts
11-Jan-19 19:09 39.655386 -106.822140 262 10124ft 156kts
11-Jan-19 19:10 39.647574 -106.865223 262 8645ft 117kts
11-Jan-19 19:11 39.643803 -106.906118 265 6558ft 94kts
11-Jan-19 19:12 39.645093 -106.914615 255 6543ft 10kts
11-Jan-19 19:13 39.642554 -106.916772 194 6543ft 10kts
11-Jan-19 19:14 39.641273 -106.913485 80 6543ft 19kts
11-Jan-19 19:15 39.641021 -106.911154 149 6543ft 0kts
11-Jan-19 19:15 39.641021 -106.911154 149 6543ft 0kts
11-Jan-19 19:16 39.641021 -106.911154 149 6543ft 0kts
11-Jan-19 19:18 39.641021 -106.911154 149 6543ft 0kts
11-Jan-19 19:19 39.641021 -106.911154 149 6543ft 0kts
11-Jan-19 19:19 39.641021 -106.911154 149 6543ft 0kts
11-Jan-19 19:20 39.641021 -106.911154 149 6543ft 0kts
11-Jan-19 19:21 39.641021 -106.911154 149 6543ft 0kts
11-Jan-19 19:22 39.641021 -106.911154 149 6543ft 0kts
11-Jan-19 19:23 39.641021 -106.911154 149 6543ft 0kts
11-Jan-19 19:24 39.641021 -106.911154 149 6543ft 0kts
11-Jan-19 19:25 39.641021 -106.911154 149 6543ft 0kts

Navigation Log

Ident Type
Flight plan parsing failed, navigation log unavailable